Hauptseite
METAR-TAF:

METAR-TAF

Flughäfen :

Flughafen Biarritz

Biarritz, Frankreich

Breite: 43-28N, Länge: 001-32W, Höhe: 75 m

Beobachtung

Neuester Wetterbericht von vor 17 Minuten, um 18:30 UTC
Wind 4 kt aus Ost/Nordost
Temperatur 14°C
Luftfeuchtigkeit 88%
Luftdruck 1018 hPa
Sichtweite 10 km oder mehr
keine Wolken unter 1500 m und keine Kumulonimbus oder Gewitterwolken

METAR: LFBZ 161830Z AUTO 07004KT CAVOK 14/12 Q1018 NOSIG

Zeit: 19:47 (18:47 UTC)

Prognose

Neuester Wetterbericht von vor 1 Stunde und 47 Minuten, um 17:00 UTC
Gültige Prognose vom 16 um 18 UTC bis 17 um 18 UTC
Wind 6 kt aus Ost
Sichtweite 10 km oder mehr
keine Wolken unter 1500 m und keine Kumulonimbus oder Gewitterwolken

TAF: LFBZ 161700Z 1618/1718 09006KT CAVOK

Wetterbeobachtungen und Prognosen von mehr als 4000 Flughäfen (METAR und TAF Bericht).

Die verfügbaren Stationen werden durch gelbe und rote Markierungen auf der Karte dargestellt.

Führen Sie die Maus auf sie, um den Namen der Station zu sehen.

Darauf klicken, um die Beobachtung von Wetterbeobachtungen und Prognosen zu sehen.

Um die Karte zu ändern : klicken Sie auf den grünen Tasten mit einem schwarzen Kreuz Zum Vergrößern, auf den grünen Button mit einem Gedankenstrich zu verkleinern, oder auf die grünen Pfeile für benachbarte Karten.


METAR-TAF: